• Join FlightAware (Why Join?)
  • Login
  • US Flag 
07:56AM EDT


 

Airport Tracker/Info


-or-


 

Live Flight TrackerFlight Track Log ✈ UAL139 ✈ 18-Aug-2013 ✈ KDEN - RJAA / NRT

Flight Track Log - Related Links

Times and Time Zones

All times are in EDT time to prevent confusion due to time zone crossing. See the UAL139 flight status page for this flight to view local times or setup timezone preferences in your user account.

Time Position Orientation Groundspeed Altitude Reporting Facility
EDT Latitude Longitude Course Direction KTS MPH feet Rate Location/Type
04:45PM 39.8570 -104.6750 351° North  Level FlightAware
04:54PM 39.8650 -104.6960 North 137 158 5,200 480 Climbing FlightAware
04:55PM 39.8850 -104.6960 360° North 206 237 5,200 720 Level FlightAware
04:55PM 39.8941 -104.6960 360° North 207 238 5,600 2,340 Climbing FlightAware ADS-B
04:55PM 39.9071 -104.6960 360° North 208 239 6,100 2,220 Climbing FlightAware ADS-B
04:55PM 39.9224 -104.6950 North 210 242 6,700 1,680 Climbing FlightAware ADS-B
04:56PM 39.9374 -104.6950 360° North 215 247 7,000 1,380 Climbing FlightAware ADS-B
04:56PM 39.9484 -104.6950 360° North 218 251 7,300 1,800 Climbing FlightAware ADS-B
04:56PM 39.9640 -104.6940 North 219 252 7,800 1,620 Climbing FlightAware ADS-B
04:56PM 39.9774 -104.6940 360° North 224 258 8,100 1,680 Climbing FlightAware ADS-B
04:57PM 39.9937 -104.6930 North 233 268 8,600 1,860 Climbing FlightAware ADS-B
04:57PM 40.0009 -104.6930 360° North 238 274 8,800 1,620 Climbing FlightAware ADS-B
04:57PM 40.0056 -104.6940 351° North 240 276 8,900 1,680 Climbing FlightAware ADS-B
04:57PM 40.0094 -104.6940 360° North 242 278 9,000 2,220 Climbing FlightAware ADS-B
04:57PM 40.0138 -104.6950 350° North 244 281 9,200 1,500 Climbing FlightAware ADS-B
04:57PM 40.0173 -104.6970 336° Northwest 246 283 9,200 840 Level FlightAware ADS-B
04:57PM 40.0214 -104.6990 340° North 249 287 9,300 1,680 Climbing FlightAware ADS-B
04:57PM 40.0253 -104.7010 339° North 253 291 9,400 1,620 Climbing FlightAware ADS-B
04:57PM 40.0417 -104.7110 335° Northwest 263 303 9,800 1,800 Climbing FlightAware ADS-B
04:57PM 40.0530 -104.7180 335° Northwest 271 312 10,200 2,340 Climbing FlightAware ADS-B
04:58PM 40.0795 -104.7330 337° Northwest 282 325 11,100 1,800 Climbing FlightAware ADS-B
04:58PM 40.0977 -104.7420 339° North 300 345 11,300 780 Climbing FlightAware ADS-B
04:59PM 40.1394 -104.7600 342° North 332 382 11,700 960 Climbing FlightAware ADS-B
04:59PM 40.1476 -104.7630 344° North 336 387 11,900 1,380 Climbing FlightAware ADS-B
04:59PM 40.1585 -104.7640 356° North 342 394 12,000 1,620 Climbing FlightAware ADS-B
04:59PM 40.2079 -104.7660 358° North 357 411 12,900 1,860 Climbing FlightAware ADS-B
05:00PM 40.2581 -104.7670 359° North 364 419 13,900 2,220 Climbing FlightAware ADS-B
05:00PM 40.3127 -104.7670 360° North 369 425 15,200 2,280 Climbing FlightAware ADS-B
05:01PM 40.3666 -104.7670 360° North 375 432 16,300 2,160 Climbing FlightAware ADS-B
05:01PM 40.4191 -104.7710 357° North 382 440 17,400 2,040 Climbing FlightAware ADS-B
05:02PM 40.4734 -104.7770 355° North 387 445 18,400 1,920 Climbing FlightAware ADS-B
05:02PM 40.5284 -104.7850 354° North 392 451 19,400 1,860 Climbing FlightAware ADS-B
05:03PM 40.5817 -104.7980 350° North 399 459 20,300 1,800 Climbing FlightAware ADS-B
05:03PM 40.6459 -104.8190 346° North 404 465 21,400 1,740 Climbing FlightAware ADS-B
05:04PM 40.7282 -104.8560 341° North 405 466 22,700 1,560 Climbing FlightAware ADS-B
05:04PM 40.7396 -104.8620 338° Northwest 416 479 22,800 960 Climbing FlightAware ADS-B
05:04PM 40.7495 -104.8680 335° Northwest 417 480 22,900 1,320 Climbing FlightAware ADS-B
05:05PM 40.8011 -104.9040 332° Northwest 415 478 23,600 1,620 Climbing FlightAware ADS-B
05:05PM 40.8512 -104.9460 328° Northwest 419 482 24,600 1,620 Climbing FlightAware ADS-B
05:06PM 40.9001 -104.9890 326° Northwest 425 489 25,300 1,440 Climbing FlightAware ADS-B
05:06PM 40.9501 -105.0340 326° Northwest 427 491 26,100 1,500 Climbing FlightAware ADS-B
05:07PM 40.9808 -105.0670 321° Northwest 429 494 26,600 1,680 Climbing FlightAware ADS-B
05:07PM 41.0253 -105.1260 315° West 427 491 27,600 1,560 Climbing FlightAware ADS-B
05:08PM 41.0690 -105.1870 314° West 430 495 28,300 1,260 Climbing FlightAware
05:08PM 41.1150 -105.2500 314° West 434 499 29,000 720 Climbing FlightAware
05:09PM 41.1610 -105.3150 313° West 436 502 29,200 1,020 Climbing FlightAware
05:10PM 41.2120 -105.3830 315° West 446 513 30,200 1,380 Climbing FlightAware
05:10PM 41.2780 -105.4740 314° West 453 521 31,000 1,080 Climbing FlightAware
05:11PM 41.3380 -105.5580 314° West 457 526 31,800 1,080 Climbing FlightAware
05:12PM 41.3870 -105.6260 314° West 459 528 32,400 1,080 Climbing FlightAware
05:12PM 41.4400 -105.7000 314° West 460 529 33,100 1,020 Climbing FlightAware
05:13PM 41.4870 -105.7660 314° West 463 533 33,600 900 Climbing FlightAware
05:13PM 41.5430 -105.8440 314° West 468 539 34,200 900 Climbing FlightAware
05:14PM 41.5970 -105.9200 314° West 467 537 34,700 780 Climbing FlightAware
05:14PM 41.6450 -105.9870 314° West 471 542 35,100 1,560 Climbing FlightAware
05:15PM 41.6970 -106.0600 314° West 449 517 36,500 1,680 Climbing FlightAware
05:16PM 41.7500 -106.1350 313° West 442 509 37,200 900 Climbing FlightAware
05:16PM 41.7940 -106.1990 313° West 442 509 37,600 600 Climbing FlightAware
05:17PM 41.8440 -106.2690 314° West 442 509 37,900 300 Climbing FlightAware
05:17PM 41.8880 -106.3320 313° West 443 510 38,000 60 Climbing FlightAware
05:18PM 41.9640 -106.4410 313° West 438 504 38,000  Level FlightAware
05:19PM 42.0020 -106.4950 313° West 436 502 38,000  Level FlightAware
05:19PM 42.0460 -106.5580 313° West 436 502 38,000  Level FlightAware
05:20PM 42.0890 -106.6200 313° West 436 502 38,000  Level FlightAware
05:21PM 42.1310 -106.6810 313° West 436 502 38,000  Level FlightAware
05:21PM 42.1750 -106.7460 312° West 436 502 38,000  Level FlightAware
05:22PM 42.2170 -106.8070 313° West 436 502 38,000  Level FlightAware
05:22PM 42.2600 -106.8670 314° West 436 502 38,000  Level FlightAware
05:23PM 42.3020 -106.9290 312° West 436 502 38,000  Level FlightAware
05:24PM 42.3440 -106.9900 313° West 436 502 38,000  Level FlightAware
05:24PM 42.3860 -107.0510 313° West 436 502 38,000  Level FlightAware
05:25PM 42.4290 -107.1140 313° West 436 502 38,000  Level FlightAware
05:25PM 42.4710 -107.1750 313° West 436 502 38,000  Level FlightAware
05:26PM 42.5140 -107.2380 313° West 436 502 38,000  Level FlightAware
05:27PM 42.5580 -107.3010 313° West 436 502 38,000  Level FlightAware
05:27PM 42.6020 -107.3650 313° West 436 502 38,000  Level FlightAware
05:28PM 42.6420 -107.4230 313° West 436 502 38,000  Level FlightAware
05:28PM 42.6850 -107.4860 313° West 436 502 38,000  Level FlightAware
05:30PM 42.9147 -107.8353 313° West 447 514 38,000  Level Salt Lake Center
05:31PM 42.9942 -107.9603 311° West 454 522 38,000  Level Salt Lake Center
05:32PM 43.0978 -108.1133 313° West 459 528 38,000  Level Salt Lake Center
05:33PM 43.1825 -108.2439 312° West 458 527 38,000  Level Salt Lake Center
05:34PM 43.2658 -108.3708 312° West 452 520 38,000  Level Salt Lake Center
05:35PM 43.3486 -108.4997 311° West 451 519 38,000  Level Salt Lake Center
05:36PM 43.4322 -108.6286 312° West 451 519 38,000  Level Salt Lake Center
05:37PM 43.5158 -108.7572 312° West 451 519 38,000  Level Salt Lake Center
05:38PM 43.6153 -108.9117 312° West 449 517 38,000  Level Salt Lake Center
05:39PM 43.6972 -109.0400 311° West 446 513 38,000  Level Salt Lake Center
05:40PM 43.7808 -109.1700 312° West 450 518 38,000  Level Salt Lake Center
05:41PM 43.8633 -109.3000 311° West 450 518 38,000  Level Salt Lake Center
05:42PM 43.9450 -109.4303 311° West 449 517 38,000  Level Salt Lake Center
05:43PM 44.0383 -109.5767 312° West 443 510 38,000  Level Salt Lake Center
05:44PM 44.1172 -109.7022 311° West 448 516 38,000  Level Salt Lake Center
05:45PM 44.2086 -109.8492 311° West 449 517 38,000  Level Salt Lake Center
05:46PM 44.2864 -109.9750 311° West 449 517 38,000  Level Salt Lake Center
05:47PM 44.3792 -110.1239 311° West 453 521 38,000  Level Salt Lake Center
05:48PM 44.4572 -110.2522 310° West 453 521 38,000  Level Salt Lake Center
05:49PM 44.5497 -110.4022 311° West 456 525 38,000  Level Salt Lake Center
05:50PM 44.6269 -110.5353 309° West 460 529 38,000  Level Salt Lake Center
05:51PM 44.7200 -110.6864 311° West 460 529 38,000  Level Salt Lake Center
05:52PM 44.7986 -110.8175 310° West 461 531 38,000  Level Salt Lake Center
05:53PM 44.8906 -110.9711 310° West 462 532 38,000  Level Salt Lake Center
05:55PM 44.9706 -111.1042 310° West 466 536 38,000  Level Salt Lake Center
05:56PM 45.0617 -111.2597 310° West 465 535 38,000  Level Salt Lake Center
05:57PM 45.1400 -111.3931 310° West 465 535 38,000  Level Salt Lake Center
05:58PM 45.2228 -111.5358 309° West 466 536 38,000  Level Salt Lake Center
05:59PM 45.3078 -111.6797 310° West 471 542 38,000  Level Salt Lake Center
06:00PM 45.3914 -111.8247 309° West 471 542 38,000  Level Salt Lake Center
06:01PM 45.4739 -111.9694 309° West 469 540 38,000  Level Salt Lake Center
06:02PM 45.5731 -112.1408 310° West 465 535 38,000  Level Salt Lake Center
06:03PM 45.6544 -112.2825 309° West 461 531 38,000  Level Salt Lake Center
06:04PM 45.7347 -112.4253 309° West 458 527 38,000  Level Salt Lake Center
06:05PM 45.8286 -112.5556 316° Northwest 465 535 38,000  Level Salt Lake Center
06:06PM 45.9269 -112.6786 319° Northwest 466 536 38,000  Level Salt Lake Center
06:07PM 46.0272 -112.8017 320° Northwest 471 542 38,000  Level Salt Lake Center
06:08PM 46.1258 -112.9233 319° Northwest 469 540 38,000  Level Salt Lake Center
06:09PM 46.2225 -113.0478 318° Northwest 466 536 38,000  Level Salt Lake Center
06:10PM 46.3433 -113.1950 320° Northwest 468 539 38,000  Level Salt Lake Center
06:16PM 46.9030 -113.9180 320° Northwest 464 534 38,000  Level FlightAware
06:16PM 46.9630 -113.9950 319° Northwest 464 534 38,000  Level FlightAware
06:17PM 47.0250 -114.0780 318° Northwest 467 537 38,000  Level FlightAware
06:18PM 47.0870 -114.1610 318° Northwest 467 537 38,000  Level FlightAware
06:19PM 47.1700 -114.2700 318° Northwest 468 539 38,000  Level FlightAware
06:19PM 47.2530 -114.3810 318° Northwest 467 537 38,000  Level FlightAware
06:20PM 47.3530 -114.5140 318° Northwest 466 536 38,000  Level FlightAware
06:21PM 47.3950 -114.5710 317° Northwest 466 536 38,000  Level FlightAware
06:22PM 47.4570 -114.6540 318° Northwest 466 536 38,000  Level FlightAware
06:22PM 47.5100 -114.7250 318° Northwest 466 536 38,000  Level FlightAware
06:23PM 47.5680 -114.8040 317° Northwest 464 534 38,000  Level FlightAware
06:23PM 47.6170 -114.8710 317° Northwest 467 537 38,000  Level FlightAware
06:24PM 47.6820 -114.9590 318° Northwest 469 540 38,000  Level FlightAware
06:24PM 47.7290 -115.0240 317° Northwest 472 543 38,000  Level FlightAware
06:25PM 47.7950 -115.1140 318° Northwest 469 540 38,000  Level FlightAware
06:26PM 47.8700 -115.2180 317° Northwest 469 540 38,000  Level FlightAware
06:26PM 47.9240 -115.2940 317° Northwest 470 541 38,000  Level FlightAware
06:27PM 48.0040 -115.4040 317° Northwest 473 544 38,000  Level FlightAware
06:28PM 48.0610 -115.4840 317° Northwest 472 543 38,000  Level FlightAware
06:28PM 48.1140 -115.5600 316° Northwest 471 542 38,000  Level FlightAware
06:29PM 48.1720 -115.6410 317° Northwest 468 539 38,000  Level FlightAware
06:30PM 48.2280 -115.7200 317° Northwest 469 540 38,000  Level FlightAware
06:30PM 48.2760 -115.7890 316° Northwest 469 540 38,000  Level FlightAware
06:31PM 48.3370 -115.8750 317° Northwest 470 541 38,000  Level FlightAware
06:31PM 48.3930 -115.9550 317° Northwest 468 539 38,000  Level FlightAware
06:32PM 48.4470 -116.0320 317° Northwest 468 539 38,000  Level FlightAware
06:33PM 48.5020 -116.1120 316° Northwest 466 536 38,000  Level FlightAware
06:33PM 48.5570 -116.1910 316° Northwest 467 537 38,000  Level FlightAware
06:34PM 48.6100 -116.2690 316° Northwest 466 536 38,000  Level FlightAware
06:34PM 48.6640 -116.3460 317° Northwest 465 535 38,000  Level FlightAware
06:35PM 48.7110 -116.4150 316° Northwest 465 535 38,000  Level FlightAware
06:35PM 48.7740 -116.5060 316° Northwest 464 534 38,000  Level FlightAware
06:36PM 48.8260 -116.5830 316° Northwest 463 533 38,000  Level FlightAware
06:37PM 48.8810 -116.6640 316° Northwest 461 531 38,000  Level FlightAware
06:37PM 48.9340 -116.7420 316° Northwest 461 531 38,000  Level FlightAware
06:38PM 48.9860 -116.8190 316° Northwest 460 529 38,000  Level FlightAware
06:38PM 49.0410 -116.9000 316° Northwest 458 527 38,000  Level FlightAware
06:39PM 49.1010 -116.9900 316° Northwest 459 528 38,000  Level FlightAware
06:40PM 49.1540 -117.0690 316° Northwest 459 528 38,000  Level FlightAware
06:40PM 49.2140 -117.1600 315° West 457 526 38,000  Level FlightAware
06:41PM 49.2580 -117.2250 316° Northwest 454 522 38,000  Level FlightAware
06:41PM 49.3120 -117.3060 316° Northwest 458 527 38,000  Level FlightAware
06:42PM 49.3720 -117.3970 315° West 449 517 38,000  Level FlightAware
06:43PM 49.4160 -117.4640 315° West 449 517 38,000  Level FlightAware
06:43PM 49.4680 -117.5430 315° West 451 519 38,000  Level FlightAware
06:44PM 49.5230 -117.6280 315° West 453 521 38,000  Level FlightAware
06:44PM 49.5710 -117.7000 316° Northwest 453 521 38,000  Level FlightAware
06:45PM 49.6230 -117.7810 315° West 451 519 38,000  Level FlightAware
06:46PM 49.6810 -117.8710 315° West 450 518 38,000  Level FlightAware
06:46PM 49.7330 -117.9510 315° West 449 517 38,000  Level FlightAware
06:47PM 49.7770 -118.0190 315° West 448 516 38,000  Level FlightAware
06:47PM 49.8340 -118.1080 315° West 446 513 38,000  Level FlightAware
06:48PM 49.8850 -118.1870 315° West 443 510 38,000  Level FlightAware
06:48PM 49.9290 -118.2560 315° West 444 511 38,000  Level FlightAware
06:49PM 49.9860 -118.3450 315° West 440 506 38,000  Level FlightAware
06:50PM 50.0290 -118.4130 315° West 436 502 38,000  Level FlightAware
06:50PM 50.0860 -118.5040 314° West 437 503 38,000  Level FlightAware
06:51PM 50.1270 -118.5690 315° West 439 505 38,000  Level FlightAware
06:51PM 50.1760 -118.6470 314° West 439 505 38,000  Level FlightAware
06:52PM 50.2340 -118.7400 314° West 436 502 38,000  Level FlightAware
06:52PM 50.2760 -118.8070 314° West 436 502 38,000  Level FlightAware
06:53PM 50.3310 -118.8950 314° West 436 502 38,000  Level FlightAware
06:54PM 50.3750 -118.9660 314° West 435 501 38,000  Level FlightAware
06:54PM 50.4190 -119.0380 314° West 435 501 38,000  Level FlightAware
06:55PM 50.4800 -119.1360 314° West 439 505 38,000  Level FlightAware
06:55PM 50.5250 -119.2090 314° West 439 505 38,000  Level FlightAware
06:56PM 50.5710 -119.2840 314° West 440 506 38,000  Level FlightAware
06:57PM 50.6200 -119.3640 314° West 436 502 38,000  Level FlightAware
06:57PM 50.6750 -119.4560 313° West 436 502 38,000  Level FlightAware
06:58PM 50.7150 -119.5200 315° West 435 501 38,000  Level FlightAware
06:58PM 50.7700 -119.6120 313° West 430 495 38,000  Level FlightAware
06:59PM 50.8200 -119.6960 313° West 432 497 38,000  Level FlightAware
06:59PM 50.8600 -119.7610 314° West 432 497 38,000  Level FlightAware
07:00PM 50.9070 -119.8410 313° West 428 493 38,000  Level FlightAware
07:01PM 50.9620 -119.9320 314° West 427 491 38,000  Level FlightAware
07:01PM 51.0120 -120.0170 313° West 429 494 38,000  Level FlightAware
07:02PM 51.0560 -120.0900 314° West 430 495 38,000  Level FlightAware
07:02PM 51.1040 -120.1710 313° West 429 494 38,000  Level FlightAware
07:03PM 51.1530 -120.2550 313° West 430 495 38,000  Level FlightAware
07:04PM 51.2020 -120.3390 313° West 432 497 38,000  Level FlightAware
07:04PM 51.2450 -120.4120 313° West 428 493 38,000  Level FlightAware
07:05PM 51.2960 -120.5000 313° West 425 489 38,000  Level FlightAware
07:05PM 51.3430 -120.5790 314° West 423 487 38,000  Level FlightAware
07:06PM 51.3870 -120.6560 312° West 424 488 38,000  Level FlightAware
07:06PM 51.4340 -120.7380 313° West 426 490 38,000  Level FlightAware
07:07PM 51.4810 -120.8190 313° West 427 491 38,000  Level FlightAware
07:08PM 51.5250 -120.8950 313° West 426 490 38,000  Level FlightAware
07:08PM 51.5720 -120.9780 312° West 423 487 38,000  Level FlightAware
07:09PM 51.6210 -121.0620 313° West 424 488 38,000  Level FlightAware
07:09PM 51.6690 -121.1480 312° West 422 486 38,000  Level FlightAware
07:10PM 51.7120 -121.2230 313° West 421 484 38,000  Level FlightAware
07:11PM 51.7580 -121.3040 313° West 417 480 38,000  Level FlightAware
07:11PM 51.8010 -121.3810 312° West 413 475 38,000  Level FlightAware
07:12PM 51.8500 -121.4680 312° West 413 475 38,000  Level FlightAware
07:12PM 51.8960 -121.5510 312° West 414 476 38,000  Level FlightAware
07:13PM 51.9360 -121.6230 312° West 413 475 38,000  Level FlightAware
07:13PM 51.9810 -121.7040 312° West 413 475 38,000  Level FlightAware
07:14PM 52.0220 -121.7770 312° West 411 473 38,000  Level FlightAware
07:15PM 52.0680 -121.8600 312° West 414 476 38,000  Level FlightAware
07:15PM 52.1190 -121.9540 311° West 414 476 38,000  Level FlightAware
07:16PM 52.1590 -122.0270 312° West 413 475 38,000  Level FlightAware
07:16PM 52.2050 -122.1100 312° West 408 470 38,000  Level FlightAware
07:17PM 52.2510 -122.1930 312° West 408 470 38,000  Level FlightAware
07:18PM 52.2950 -122.2770 311° West 409 471 38,000  Level FlightAware
07:18PM 52.3320 -122.3470 311° West 409 471 38,000  Level FlightAware
07:19PM 52.3780 -122.4350 311° West 406 467 38,000  Level FlightAware
07:19PM 52.4230 -122.5200 311° West 404 465 38,000  Level FlightAware
07:20PM 52.4610 -122.5920 311° West 404 465 38,000  Level FlightAware
07:20PM 52.5040 -122.6750 310° West 406 467 38,000  Level FlightAware
07:21PM 52.5490 -122.7600 311° West 406 467 38,000  Level FlightAware
07:22PM 52.5910 -122.8400 311° West 409 471 38,000  Level FlightAware
07:22PM 52.6360 -122.9260 311° West 410 472 38,000  Level FlightAware
07:23PM 52.6800 -123.0100 311° West 409 471 38,000  Level FlightAware
07:23PM 52.7170 -123.0800 311° West 410 472 38,000  Level FlightAware
07:24PM 52.7630 -123.1680 311° West 407 468 38,000  Level FlightAware
07:25PM 52.8070 -123.2540 310° West 405 466 38,000  Level FlightAware
07:25PM 52.8460 -123.3310 310° West 414 476 38,000  Level FlightAware
07:26PM 52.8890 -123.4140 311° West 418 481 38,000  Level FlightAware
07:26PM 52.9350 -123.5040 310° West 421 484 38,000  Level FlightAware
07:27PM 52.9810 -123.5940 310° West 428 493 38,000  Level FlightAware
07:28PM 53.0280 -123.6860 310° West 437 503 38,000  Level FlightAware
07:28PM 53.0690 -123.7670 310° West 433 498 38,000  Level FlightAware
07:29PM 53.1160 -123.8590 310° West 434 499 38,000  Level FlightAware
07:29PM 53.1650 -123.9570 310° West 440 506 38,000  Level FlightAware
07:30PM 53.2070 -124.0400 310° West 445 512 38,000  Level FlightAware
07:30PM 53.2540 -124.1360 309° West 448 516 38,000  Level FlightAware
07:31PM 53.3030 -124.2330 310° West 450 518 38,000  Level FlightAware
07:32PM 53.3450 -124.3170 310° West 452 520 38,000  Level FlightAware
07:32PM 53.3920 -124.4130 309° West 450 518 38,000  Level FlightAware
07:33PM 53.4430 -124.5170 309° West 452 520 38,000  Level FlightAware
07:33PM 53.4860 -124.6030 310° West 454 522 38,000  Level FlightAware
07:34PM 53.5330 -124.7010 309° West 457 526 38,000  Level FlightAware
07:35PM 53.5820 -124.8000 310° West 463 533 38,000  Level FlightAware
07:35PM 53.6300 -124.9010 309° West 467 537 38,000  Level FlightAware
07:36PM 53.6720 -124.9880 309° West 466 536 38,000  Level FlightAware
07:36PM 53.7220 -125.0920 309° West 464 534 38,000  Level FlightAware
07:37PM 53.7700 -125.1900 310° West 465 535 38,000  Level FlightAware
07:37PM 53.8180 -125.2910 309° West 468 539 38,000  Level FlightAware
07:38PM 53.8660 -125.3920 309° West 471 542 38,000  Level FlightAware
07:39PM 53.9100 -125.4860 308° West 471 542 38,000  Level FlightAware
07:39PM 53.9590 -125.5890 309° West 469 540 38,000  Level FlightAware
07:40PM 54.0060 -125.6880 309° West 471 542 38,000  Level FlightAware
07:40PM 54.0550 -125.7910 309° West 471 542 38,000  Level FlightAware
07:41PM 54.1040 -125.8950 309° West 471 542 38,000  Level FlightAware
07:42PM 54.1520 -125.9980 309° West 466 536 38,000  Level FlightAware
07:42PM 54.1950 -126.0910 308° West 466 536 38,000  Level FlightAware
07:43PM 54.2430 -126.1940 309° West 469 540 38,000  Level FlightAware
07:43PM 54.2920 -126.3000 308° West 468 539 38,000  Level FlightAware
07:44PM 54.3330 -126.3900 308° West 470 541 38,000  Level FlightAware
07:44PM 54.3850 -126.5040 308° West 472 543 38,000  Level FlightAware
07:45PM 54.4330 -126.6100 308° West 471 542 38,000  Level FlightAware
07:46PM 54.4720 -126.7060 305° West 467 537 38,000  Level FlightAware
07:46PM 54.5130 -126.8220 301° West 464 534 38,000  Level FlightAware
07:47PM 54.5500 -126.9270 301° West 467 537 38,000  Level FlightAware
07:47PM 54.5890 -127.0380 301° West 467 537 38,000  Level FlightAware
07:48PM 54.6230 -127.1360 301° West 467 537 38,000  Level FlightAware
07:49PM 54.6780 -127.2960 301° West 468 539 38,000  Level FlightAware
07:49PM 54.7120 -127.3950 301° West 468 539 38,000  Level FlightAware
07:50PM 54.7640 -127.5400 302° West 470 541 38,000  Level FlightAware
07:51PM 54.8030 -127.6540 301° West 470 541 38,000  Level FlightAware
07:51PM 54.8360 -127.7540 300° West 470 541 38,000  Level FlightAware
07:52PM 54.8690 -127.8550 300° West 470 541 38,000  Level FlightAware
07:52PM 54.9020 -127.9550 300° West 470 541 38,000  Level FlightAware
07:53PM 54.9360 -128.0550 301° West 470 541 38,000  Level FlightAware
07:53PM 54.9580 -128.1220 300° West 470 541 38,000  Level FlightAware
07:54PM 54.9900 -128.2200 300° West 470 541 38,000  Level FlightAware
07:55PM 55.0230 -128.3200 300° West 470 541 38,000  Level FlightAware
07:55PM 55.0570 -128.4210 300° West 470 541 38,000  Level FlightAware
07:56PM 55.0900 -128.5210 300° West 470 541 38,000  Level FlightAware
07:56PM 55.1230 -128.6220 300° West 470 541 38,000  Level FlightAware
07:57PM 55.1560 -128.7230 300° West 470 541 38,000  Level FlightAware
07:58PM 55.1910 -128.8270 301° West 470 541 38,000  Level FlightAware
07:58PM 55.2240 -128.9280 300° West 470 541 38,000  Level FlightAware
07:59PM 55.2580 -129.0310 300° West 470 541 38,000  Level FlightAware
07:59PM 55.2910 -129.1330 300° West 470 541 38,000  Level FlightAware
08:00PM 55.3250 -129.2340 301° West 470 541 38,000  Level FlightAware
08:00PM 55.4500 -129.6333 301° West 490 564 38,000  Level Anchorage Center
08:01PM 55.5167 -129.8333 301° West 490 564 38,000  Level Anchorage Center
08:02PM 55.5833 -130.0500 299° West 490 564 38,000  Level Anchorage Center
08:03PM 55.6500 -130.2500 301° West 490 564 38,000  Level Anchorage Center
08:04PM 55.7167 -130.4833 297° West 490 564 38,000  Level Anchorage Center
08:06PM 55.7667 -130.6833 294° West 490 564 38,000  Level Anchorage Center
08:06PM 55.8333 -130.9000 299° West 500 575 38,000  Level Anchorage Center
08:07PM 55.8667 -131.0500 292° West 490 564 38,000  Level Vancouver Center
08:08PM 55.9000 -131.1167 312° West 500 575 38,000  Level Anchorage Center
08:09PM 55.9667 -131.3167 301° West 490 564 38,000  Level Anchorage Center
08:10PM 56.0167 -131.5333 293° West 490 564 38,000  Level Anchorage Center
08:11PM 56.0833 -131.7500 299° West 490 564 38,000  Level Anchorage Center
08:12PM 56.1500 -131.9667 299° West 490 564 38,000  Level Anchorage Center
08:13PM 56.2167 -132.1833 299° West 500 575 38,000  Level Anchorage Center
08:14PM 56.2667 -132.4000 293° West 490 564 38,000  Level Anchorage Center
08:15PM 56.3333 -132.6167 299° West 490 564 38,000  Level Anchorage Center
08:16PM 56.4000 -132.8333 299° West 490 564 38,000  Level Anchorage Center
08:17PM 56.4500 -133.0667 291° West 490 564 38,000  Level Anchorage Center
08:18PM 56.5167 -133.2833 299° West 500 575 38,000  Level Anchorage Center
08:19PM 56.5833 -133.5000 299° West 500 575 38,000  Level Anchorage Center
08:20PM 56.6500 -133.7167 299° West 500 575 38,000  Level Anchorage Center
08:21PM 56.7167 -133.9500 298° West 500 575 38,000  Level Anchorage Center
08:22PM 56.7833 -134.1667 299° West 500 575 38,000  Level Anchorage Center
08:23PM 56.8333 -134.3833 293° West 500 575 38,000  Level Anchorage Center
08:24PM 56.9000 -134.6167 298° West 490 564 38,000  Level Anchorage Center
08:25PM 56.9667 -134.8333 300° West 500 575 38,000  Level Anchorage Center
08:26PM 57.0333 -135.0667 298° West 500 575 38,000  Level Anchorage Center
08:27PM 57.0833 -135.3000 292° West 500 575 38,000  Level Anchorage Center
08:28PM 57.1500 -135.5167 300° West 500 575 38,000  Level Anchorage Center
08:29PM 57.2167 -135.7500 298° West 500 575 38,000  Level Anchorage Center
08:31PM 57.3333 -136.2167 295° West 500 575 38,000  Level Anchorage Center
08:32PM 57.4000 -136.4500 298° West 500 575 38,000  Level Anchorage Center
08:33PM 57.4500 -136.6833 292° West 500 575 38,000  Level Anchorage Center
08:34PM 57.5167 -136.9167 298° West 510 587 38,000  Level Anchorage Center
08:35PM 57.5667 -137.1500 292° West 510 587 38,000  Level Anchorage Center
08:36PM 57.6333 -137.3833 298° West 500 575 38,000  Level Anchorage Center
08:37PM 57.7000 -137.6333 297° West 510 587 38,000  Level Anchorage Center
08:38PM 57.7500 -137.8667 292° West 500 575 38,000  Level Anchorage Center
08:39PM 57.8000 -138.1167 291° West 510 587 38,000  Level Anchorage Center
08:40PM 57.8667 -138.3500 298° West 510 587 38,000  Level Anchorage Center
08:41PM 57.9167 -138.6000 291° West 510 587 38,000  Level Anchorage Center
08:42PM 57.9833 -138.8500 297° West 500 575 38,000  Level Anchorage Center
08:43PM 58.0333 -139.0833 292° West 500 575 38,000  Level Anchorage Center
08:44PM 58.0833 -139.3333 291° West 500 575 38,000  Level Anchorage Center
08:45PM 58.1333 -139.5667 292° West 500 575 38,000  Level Anchorage Center
08:46PM 58.2000 -139.8167 297° West 500 575 38,000  Level Anchorage Center
08:47PM 58.2500 -140.0667 291° West 500 575 38,000  Level Anchorage Center
08:48PM 58.3000 -140.3167 291° West 500 575 38,000  Level Anchorage Center
08:49PM 58.3500 -140.5667 291° West 500 575 38,000  Level Anchorage Center
08:50PM 58.4000 -140.8167 291° West 500 575 38,000  Level Anchorage Center
08:51PM 58.4667 -141.0667 297° West 500 575 38,000  Level Anchorage Center
08:52PM 58.5167 -141.3167 291° West 500 575 38,000  Level Anchorage Center
08:53PM 58.5667 -141.5667 291° West 500 575 38,000  Level Anchorage Center
08:54PM 58.6167 -141.8167 291° West 500 575 38,000  Level Anchorage Center
08:55PM 58.6667 -142.0667 291° West 500 575 38,000  Level Anchorage Center
08:56PM 58.7167 -142.3167 291° West 500 575 38,000  Level Anchorage Center
08:57PM 58.7667 -142.5667 291° West 500 575 38,000  Level Anchorage Center
08:58PM 58.8000 -142.8167 285° West 490 564 38,000  Level Anchorage Center
08:59PM 58.8500 -143.0833 290° West 500 575 38,000  Level Anchorage Center
09:00PM 58.9000 -143.3167 293° West 500 575 38,000  Level Anchorage Center
09:01PM 58.9500 -143.5667 291° West 500 575 38,000  Level Anchorage Center
09:02PM 59.0000 -143.8167 291° West 490 564 38,000  Level Anchorage Center
09:03PM 59.0333 -144.0833 284° West 500 575 38,000  Level Anchorage Center
09:04PM 59.0833 -144.3333 291° West 500 575 38,000  Level Anchorage Center
09:05PM 59.1333 -144.6000 290° West 500 575 38,000  Level Anchorage Center
09:06PM 59.1667 -144.8500 285° West 500 575 38,000  Level Anchorage Center
09:07PM 59.2167 -145.1167 290° West 500 575 38,000  Level Anchorage Center
09:08PM 59.2667 -145.3667 291° West 490 564 38,000  Level Anchorage Center
09:09PM 59.3000 -145.6333 284° West 500 575 38,000  Level Anchorage Center
09:10PM 59.3500 -145.9000 290° West 500 575 38,000  Level Anchorage Center
09:16PM 59.6130 -147.5430 290° West 499 574 38,000  Level FlightAware
09:16PM 59.6370 -147.7030 287° West 499 574 38,000  Level FlightAware
09:17PM 59.6560 -147.8380 286° West 499 574 38,000  Level FlightAware
09:18PM 59.6920 -148.0610 288° West 501 577 38,000  Level FlightAware
09:18PM 59.7180 -148.2300 287° West 500 575 38,000  Level FlightAware
09:19PM 59.7430 -148.3990 286° West 499 574 38,000  Level FlightAware
09:20PM 59.7650 -148.5500 286° West 499 574 38,000  Level FlightAware
09:20PM 59.7870 -148.7050 286° West 498 573 38,000  Level FlightAware
09:21PM 59.8160 -148.9010 286° West 497 572 38,000  Level FlightAware
09:21PM 59.8350 -149.0410 285° West 497 572 38,000  Level FlightAware
09:22PM 59.8570 -149.1980 286° West 498 573 38,000  Level FlightAware
09:23PM 59.8800 -149.3590 286° West 501 577 38,000  Level FlightAware
09:23PM 59.9020 -149.5200 285° West 501 577 38,000  Level FlightAware
09:24PM 59.9220 -149.6630 286° West 502 578 38,000  Level FlightAware
09:24PM 59.9430 -149.8190 285° West 503 579 38,000  Level FlightAware
09:25PM 59.9640 -149.9780 285° West 504 580 38,000  Level FlightAware
09:26PM 59.9860 -150.1410 285° West 503 579 38,000  Level FlightAware
09:26PM 60.0150 -150.3620 285° West 504 580 38,000  Level FlightAware
09:27PM 60.0320 -150.4960 284° West 504 580 38,000  Level FlightAware
09:28PM 60.0530 -150.6540 285° West 505 581 38,000  Level FlightAware
09:28PM 60.0760 -150.8360 284° West 506 582 38,000  Level FlightAware
09:29PM 60.0910 -150.9610 284° West 507 583 38,000  Level FlightAware
09:29PM 60.1120 -151.1280 284° West 503 579 38,000  Level FlightAware
09:30PM 60.1350 -151.3120 284° West 503 579 38,000  Level FlightAware
09:31PM 60.1530 -151.4660 283° West 502 578 38,000  Level FlightAware
09:31PM 60.1710 -151.6110 284° West 500 575 38,000  Level FlightAware
09:32PM 60.1910 -151.7760 284° West 499 574 38,000  Level FlightAware
09:32PM 60.2090 -151.9370 283° West 496 571 38,000  Level FlightAware
09:33PM 60.2310 -152.1260 283° West 494 568 38,000  Level FlightAware
09:34PM 60.2500 -152.2890 283° West 495 570 38,000  Level FlightAware
09:34PM 60.2670 -152.4350 283° West 495 570 38,000  Level FlightAware
09:35PM 60.2820 -152.5710 283° West 495 570 38,000  Level FlightAware
09:35PM 60.3030 -152.7600 283° West 495 570 38,000  Level FlightAware
09:36PM 60.3180 -152.8940 283° West 494 568 38,000  Level FlightAware
09:36PM 60.3350 -153.0550 282° West 494 568 38,000  Level FlightAware
09:37PM 60.3520 -153.2140 282° West 494 568 38,000  Level FlightAware
09:38PM 60.3700 -153.3910 282° West 495 570 38,000  Level FlightAware
09:38PM 60.3890 -153.5650 283° West 493 567 38,000  Level FlightAware
09:39PM 60.4040 -153.7210 281° West 493 567 38,000  Level FlightAware
09:40PM 60.4170 -153.8600 281° West 493 567 38,000  Level FlightAware
09:40PM 60.4380 -154.0520 283° West 493 567 38,000  Level FlightAware
09:41PM 60.4560 -154.2310 282° West 492 566 38,000  Level FlightAware
09:41PM 60.4710 -154.3900 281° West 495 570 38,000  Level FlightAware
09:42PM 60.4860 -154.5480 281° West 495 570 38,000  Level FlightAware
09:42PM 60.4970 -154.7060 278° West 498 573 38,000  Level FlightAware
09:43PM 60.4990 -154.8980 271° West 499 574 38,000  Level FlightAware
09:44PM 60.4990 -155.0530 270° West 499 574 38,000  Level FlightAware
09:44PM 60.4990 -155.1970 270° West 499 574 38,000  Level FlightAware
09:45PM 60.4990 -155.3400 270° West 499 574 38,000  Level FlightAware
09:46PM 60.4990 -155.4880 270° West 499 574 38,000  Level FlightAware
09:46PM 60.4990 -155.6310 270° West 499 574 38,000  Level FlightAware
09:47PM 60.4990 -155.7750 270° West 499 574 38,000  Level FlightAware
09:47PM 60.4990 -155.9180 270° West 499 574 38,000  Level FlightAware
09:48PM 60.4990 -156.0660 270° West 499 574 38,000  Level FlightAware
09:49PM 60.4990 -156.2090 270° West 499 574 38,000  Level FlightAware
09:49PM 60.4990 -156.3530 270° West 499 574 38,000  Level FlightAware
09:50PM 60.4990 -156.4960 270° West 499 574 38,000  Level FlightAware
09:50PM 60.4990 -156.6390 270° West 499 574 38,000  Level FlightAware
09:51PM 60.4990 -156.7870 270° West 499 574 38,000  Level FlightAware
09:52PM 60.4990 -156.9340 270° West 499 574 38,000  Level FlightAware
09:52PM 60.4990 -157.0820 270° West 499 574 38,000  Level FlightAware
09:53PM 60.4990 -157.2250 270° West 499 574 38,000 1,500 Level FlightAware
09:54PM 60.4667 -157.7667 270° West 490 564 40,000 1,140 Climbing Anchorage Center
09:55PM 60.4500 -158.0500 263° West 500 575 40,000  Level Anchorage Center
09:56PM 60.4500 -158.3167 270° West 490 564 40,000  Level Anchorage Center
09:57PM 60.4333 -158.6000 263° West 490 564 40,000  Level Anchorage Center
09:58PM 60.4333 -158.8833 270° West 500 575 40,000  Level Anchorage Center
09:59PM 60.4167 -159.1667 263° West 500 575 40,000  Level Anchorage Center
10:00PM 60.4167 -159.4500 270° West 490 564 40,000  Level Anchorage Center
10:01PM 60.4000 -159.7167 263° West 490 564 40,000  Level Anchorage Center
10:02PM 60.3833 -160.0000 263° West 480 552 40,000  Level Anchorage Center
10:03PM 60.3833 -160.3000 270° West 490 564 40,000  Level Anchorage Center
10:04PM 60.3667 -160.5833 263° West 490 564 40,000  Level Anchorage Center
10:05PM 60.3500 -160.8500 263° West 480 552 40,000  Level Anchorage Center
10:06PM 60.3500 -161.1167 270° West 480 552 40,000  Level Anchorage Center
10:07PM 60.3333 -161.3833 263° West 480 552 40,000  Level Anchorage Center
10:08PM 60.3167 -161.6667 263° West 480 552 40,000  Level Anchorage Center
10:09PM 60.3000 -161.9333 263° West 480 552 40,000  Level Anchorage Center
10:10PM 60.2833 -162.2000 263° West 470 541 40,000  Level Anchorage Center
10:11PM 60.2667 -162.4667 263° West 470 541 40,000  Level Anchorage Center
10:12PM 60.2500 -162.7333 263° West 470 541 40,000  Level Anchorage Center
10:13PM 60.2333 -163.0000 263° West 480 552 40,000  Level Anchorage Center
10:14PM 60.2000 -163.2500 255° West 480 552 40,000  Level Anchorage Center
10:15PM 60.1667 -163.5167 256° West 480 552 40,000  Level Anchorage Center
10:16PM 60.1333 -163.7833 256° West 480 552 40,000  Level Anchorage Center
10:17PM 60.0833 -164.0500 249° West 490 564 40,000  Level Anchorage Center
10:18PM 60.0500 -164.3000 255° West 490 564 40,000  Level Anchorage Center
10:19PM 60.0167 -164.5500 255° West 490 564 40,000  Level Anchorage Center
10:20PM 59.9667 -164.8167 250° West 490 564 40,000  Level Anchorage Center
10:21PM 59.9333 -165.0833 256° West 490 564 40,000  Level Anchorage Center
10:22PM 59.8833 -165.3500 250° West 500 575 40,000  Level Anchorage Center
10:23PM 59.8500 -165.6000 255° West 490 564 40,000  Level Anchorage Center
10:24PM 59.8000 -165.8500 248° West 480 552 40,000  Level Anchorage Center
10:25PM 59.7667 -166.1167 256° West 490 564 40,000  Level Anchorage Center
10:26PM 59.7167 -166.3667 248° West 490 564 40,000  Level Anchorage Center
10:27PM 59.6833 -166.6167 255° West 490 564 40,000  Level Anchorage Center
10:28PM 59.6167 -166.9833 250° West 490 564 40,000  Level Anchorage Center
10:29PM 59.5667 -167.2333 249° West 490 564 40,000  Level Anchorage Center
10:30PM 59.5167 -167.5000 250° West 500 575 40,000  Level Anchorage Center
10:31PM 59.4667 -167.7500 249° West 490 564 40,000  Level Anchorage Center
10:32PM 59.4167 -168.0167 250° West 490 564 40,000  Level Anchorage Center
10:33PM 59.3833 -168.2000 250° West 470 541 40,000  Level Anchorage Center
10:34PM 59.3333 -168.4667 250° West 490 564 40,000  Level Anchorage Center
10:35PM 59.2833 -168.7333 250° West 500 575 40,000  Level Anchorage Center
10:36PM 59.2333 -168.9833 249° West 500 575 40,000  Level Anchorage Center
10:37PM 59.1833 -169.2333 249° West 490 564 40,000  Level Anchorage Center
10:38PM 59.1333 -169.5000 250° West 510 587 40,000  Level Anchorage Center
10:39PM 59.0833 -169.7500 249° West 500 575 40,000  Level Anchorage Center
10:40PM 59.0333 -170.0000 249° West 500 575 40,000  Level Anchorage Center
10:41PM 58.9833 -170.2667 250° West 500 575 40,000  Level Anchorage Center
10:42PM 58.9333 -170.5167 249° West 520 598 40,000  Level Anchorage Center
10:43PM 58.8833 -170.7667 249° West 490 564 40,000  Level Anchorage Center
10:44PM 58.8167 -171.0167 243° Southwest 490 564 40,000  Level Anchorage Center
10:45PM 58.7667 -171.2667 249° West 500 575 40,000  Level Anchorage Center
10:46PM 58.7167 -171.5000 248° West 490 564 40,000  Level Anchorage Center
10:47PM 58.6667 -171.7500 249° West 480 552 40,000  Level Anchorage Center
10:48PM 58.6167 -172.0000 249° West 490 564 40,000  Level Anchorage Center
10:49PM 58.5667 -172.2500 249° West 490 564 40,000  Level Anchorage Center
10:50PM 58.5167 -172.4833 248° West 490 564 40,000  Level Anchorage Center
10:51PM 58.4667 -172.7333 249° West 500 575 40,000  Level Anchorage Center
10:52PM 58.4167 -172.9667 248° West 480 552 40,000  Level Anchorage Center
10:53PM 58.3667 -173.2167 249° West 500 575 40,000  Level Anchorage Center
10:54PM 58.3000 -173.4667 243° Southwest 500 575 40,000  Level Anchorage Center
10:55PM 58.2500 -173.7167 249° West 500 575 40,000  Level Anchorage Center
10:56PM 58.2000 -173.9667 249° West 500 575 40,000  Level Anchorage Center
10:57PM 58.1500 -174.2000 248° West 500 575 40,000  Level Anchorage Center
10:58PM 58.0833 -174.4500 243° Southwest 510 587 40,000  Level Anchorage Center
10:59PM 58.0333 -174.7000 249° West 510 587 40,000  Level Anchorage Center
11:00PM 57.9833 -174.9333 248° West 490 564 40,000  Level Anchorage Center
11:01PM 57.9167 -175.1833 243° Southwest 500 575 40,000  Level Anchorage Center
11:02PM 57.8667 -175.4167 248° West 500 575 40,000  Level Anchorage Center
11:03PM 57.8000 -175.6667 243° Southwest 500 575 40,000  Level Anchorage Center
11:04PM 57.7500 -175.9000 248° West 500 575 40,000  Level Anchorage Center
11:05PM 57.6833 -176.1333 242° Southwest 500 575 40,000  Level Anchorage Center
11:06PM 57.6333 -176.3667 248° West 500 575 40,000  Level Anchorage Center
11:09PM 57.5561 -176.7023 247° West  Level FlightAware Approximate
11:12PM 57.3333 -177.6167 244° Southwest 518 596 40,000  Level Anchorage Center
11:16PM 57.1589 -178.2487 245° Southwest  Level FlightAware Approximate
11:17PM 57.1004 -178.4666 244° Southwest  Level FlightAware Approximate
11:18PM 56.9435 -179.0642 243° Southwest 518 596 40,000  Level FlightAware Transoceanic
11:19PM 56.8769 -179.3025 243° Southwest 518 596 40,000  Level FlightAware Transoceanic
11:20PM 56.8099 -179.5399 243° Southwest 518 596 40,000  Level FlightAware Transoceanic
11:21PM 56.7424 -179.7765 242° Southwest 518 596 40,000  Level FlightAware Transoceanic
11:21PM 56.7000 -179.8833 242° Southwest 524 603 40,000  Level Anchorage Center
11:22PM 56.6744 179.9877 242° Southwest 518 596 40,000  Level FlightAware Transoceanic
11:23PM 56.6061 179.7528 242° Southwest 518 596 40,000  Level FlightAware Transoceanic
11:24PM 56.5373 179.5188 242° Southwest 518 596 40,000  Level FlightAware Transoceanic
11:25PM 56.4680 179.2856 242° Southwest 518 596 40,000  Level FlightAware Transoceanic
11:26PM 56.3983 179.0533 241° Southwest 518 596 40,000  Level FlightAware Transoceanic
11:27PM 56.2923 178.7361 241° Southwest 524 603 40,000  Level FlightAware Transoceanic
11:28PM 56.2229 178.5089 241° Southwest 524 603 40,000  Level FlightAware Transoceanic
11:29PM 56.1531 178.2825 241° Southwest 524 603 40,000  Level FlightAware Transoceanic
11:30PM 56.0828 178.0569 241° Southwest 524 603 40,000  Level FlightAware Transoceanic
11:30PM 56.0333 177.8833 240° Southwest 527 606 40,000  Level Anchorage Center
11:31PM 56.0121 177.8322 241° Southwest 524 603 40,000  Level FlightAware Transoceanic
11:32PM 55.9411 177.6083 240° Southwest 524 603 40,000  Level FlightAware Transoceanic
11:33PM 55.8696 177.3852 240° Southwest 524 603 40,000  Level FlightAware Transoceanic
11:34PM 55.7977 177.1629 240° Southwest 524 603 40,000  Level FlightAware Transoceanic
11:34PM 55.7833 177.1333 239° Southwest 520 598 40,000  Level Anchorage Center
11:35PM 55.7255 176.9415 240° Southwest 524 603 40,000  Level FlightAware Transoceanic
11:35PM 55.7167 176.9333 239° Southwest 520 598 40,000  Level Anchorage Center
11:36PM 55.6528 176.7209 240° Southwest 524 603 40,000  Level FlightAware Transoceanic
11:36PM 55.6333 176.7000 238° Southwest 530 610 40,000  Level Anchorage Center
11:37PM 55.5960 176.5384 239° Southwest 527 606 40,000  Level FlightAware Transoceanic
11:37PM 55.5833 176.5000 246° West 520 598 40,000  Level Anchorage Center
11:38PM 55.5217 176.3172 239° Southwest 527 606 40,000  Level FlightAware Transoceanic
11:38PM 55.5000 176.2500 240° Southwest 520 598 40,000  Level Anchorage Center
11:39PM 55.4470 176.0968 239° Southwest 527 606 40,000  Level FlightAware Transoceanic
11:39PM 55.4333 176.0667 237° Southwest 520 598 40,000  Level Anchorage Center
11:40PM 55.3500 175.8333 238° Southwest 520 598 40,000  Level Anchorage Center
11:41PM 55.2667 175.5833 240° Southwest 520 598 40,000  Level Anchorage Center
11:42PM 55.2000 175.4000 238° Southwest 520 598 40,000  Level Anchorage Center
11:43PM 55.1167 175.1667 238° Southwest 520 598 40,000  Level Anchorage Center
11:44PM 55.0500 174.9667 240° Southwest 520 598 40,000  Level Anchorage Center
11:45PM 54.9667 174.7333 238° Southwest 530 610 40,000  Level Anchorage Center
11:46PM 54.9000 174.5500 238° Southwest 520 598 40,000  Level Anchorage Center
11:47PM 54.8167 174.3167 238° Southwest 530 610 40,000  Level Anchorage Center
11:48PM 54.7333 174.0833 238° Southwest 530 610 40,000  Level Anchorage Center
11:49PM 54.6667 173.9000 238° Southwest 530 610 40,000  Level Anchorage Center
11:50PM 54.5833 173.6667 238° Southwest 530 610 40,000  Level Anchorage Center
11:51PM 54.5000 173.4833 232° Southwest 530 610 40,000  Level Anchorage Center
11:52PM 54.4167 173.2500 239° Southwest 540 621 40,000  Level Anchorage Center
11:53PM 54.3500 173.0667 238° Southwest 520 598 40,000  Level Anchorage Center
11:54PM 54.2500 172.8333 234° Southwest 530 610 40,000  Level Anchorage Center
11:55PM 54.1667 172.6000 239° Southwest 530 610 40,000  Level Anchorage Center
11:56PM 54.1000 172.4167 238° Southwest 520 598 40,000  Level Anchorage Center
11:57PM 54.0000 172.2000 232° Southwest 540 621 40,000  Level Anchorage Center
11:58PM 53.9167 172.0167 232° Southwest 540 621 40,000  Level Anchorage Center
11:59PM 53.8333 171.8000 237° Southwest 530 610 40,000  Level Anchorage Center
12:00AM 53.7667 171.6333 236° Southwest 510 587 40,000  Level Anchorage Center
12:01AM 53.6667 171.4000 234° Southwest 520 598 40,000  Level Anchorage Center
12:02AM 53.5667 171.1833 232° Southwest 530 610 40,000  Level Anchorage Center
12:03AM 53.5000 171.0167 236° Southwest 530 610 40,000  Level Anchorage Center
12:04AM 53.4000 170.8000 232° Southwest 530 610 40,000  Level Anchorage Center
12:05AM 53.3167 170.6167 233° Southwest 530 610 40,000  Level Anchorage Center
12:06AM 53.2333 170.4000 237° Southwest 530 610 40,000  Level Anchorage Center
12:07AM 53.1500 170.2333 230° Southwest 540 621 40,000  Level Anchorage Center
12:08AM 53.0500 170.0167 233° Southwest 540 621 40,000  Level Anchorage Center
12:09AM 52.9667 169.8500 230° Southwest 540 621 40,000  Level Anchorage Center
12:10AM 52.9000 169.6167 245° Southwest 540 621 40,000  Level Anchorage Center
12:11AM 52.8333 169.3833 245° Southwest 520 598 40,000  Level Anchorage Center
12:12AM 52.7667 169.2000 239° Southwest 530 610 40,000  Level Anchorage Center
12:13AM 52.6833 168.9667 240° Southwest 550 633 40,000  Level Anchorage Center
12:14AM 52.6167 168.7833 239° Southwest 520 598 40,000  Level Anchorage Center
12:15AM 52.5333 168.5667 238° Southwest 550 633 40,000  Level Anchorage Center
12:16AM 52.4833 168.3833 246° West 540 621 40,000  Level Anchorage Center
12:17AM 52.4000 168.1500 240° Southwest 540 621 40,000  Level Anchorage Center
12:18AM 52.3333 167.9833 237° Southwest 510 587 40,000  Level Anchorage Center
12:19AM 52.2500 167.7500 240° Southwest 540 621 40,000  Level Anchorage Center
12:20AM 52.1667 167.5333 238° Southwest 530 610 40,000  Level Anchorage Center
12:23AM 52.0437 167.1975 239° Southwest  Level FlightAware Approximate
12:28AM 51.5500 165.8833 238° Southwest 514 592 40,000  Level Anchorage Center
12:30AM 51.5613 165.9206 239° Southwest  Level FlightAware Approximate
12:30AM 51.4333 165.5500 238° Southwest 510 587 40,000  Level Anchorage Center
12:31AM 51.4912 165.7404 238° Southwest  Level FlightAware Approximate
12:32AM 51.4209 165.5608 238° Southwest  Level FlightAware Approximate
12:33AM 51.3512 165.3808 238° Southwest  Level FlightAware Approximate
12:34AM 51.2813 165.2012 238° Southwest  Level FlightAware Approximate
12:35AM 51.0496 164.6237 237° Southwest 514 592 40,000  Level FlightAware Transoceanic
12:36AM 50.9975 164.4691 237° Southwest 510 587 40,000  Level FlightAware Transoceanic
12:36AM 50.9500 164.3833 237° Southwest 506 582 40,000  Level Anchorage Center
12:37AM 50.9239 164.2910 237° Southwest 510 587 40,000  Level FlightAware Transoceanic
12:38AM 50.8500 164.1134 237° Southwest 510 587 40,000  Level FlightAware Transoceanic
12:38AM 50.8333 164.0667 236° Southwest 505 581 40,000  Level Anchorage Center
12:39AM 50.7759 163.9363 236° Southwest 510 587 40,000  Level FlightAware Transoceanic
12:40AM 50.7015 163.7598 236° Southwest 510 587 40,000  Level FlightAware Transoceanic
12:41AM 50.6268 163.5839 236° Southwest 510 587 40,000  Level FlightAware Transoceanic
12:42AM 50.4971 163.3029 236° Southwest 506 582 40,000  Level FlightAware Transoceanic
12:43AM 50.4207 163.1248 236° Southwest 506 582 40,000  Level FlightAware Transoceanic
12:44AM 50.3688 162.9803 236° Southwest 505 581 40,000  Level FlightAware Transoceanic
12:45AM 50.2904 162.8013 235° Southwest 505 581 40,000  Level FlightAware Transoceanic
12:46AM 50.2118 162.6229 235° Southwest 505 581 40,000  Level FlightAware Transoceanic
12:47AM 50.1328 162.4451 235° Southwest 505 581 40,000  Level FlightAware Transoceanic
12:47AM 50.0833 162.3333 235° Southwest 499 574 40,000  Level Anchorage Center
12:48AM 50.0536 162.2679 235° Southwest 505 581 40,000  Level FlightAware Transoceanic
12:49AM 49.9741 162.0912 235° Southwest 505 581 40,000  Level FlightAware Transoceanic
12:50AM 49.8944 161.9152 235° Southwest 505 581 40,000  Level FlightAware Transoceanic
12:51AM 49.8144 161.7397 235° Southwest 505 581 40,000  Level FlightAware Transoceanic
12:52AM 49.7341 161.5648 235° Southwest 505 581 40,000  Level FlightAware Transoceanic
12:53AM 49.6536 161.3905 234° Southwest 505 581 40,000  Level FlightAware Transoceanic
12:54AM 49.5891 161.2513 234° Southwest 499 574 40,000  Level FlightAware Transoceanic
12:55AM 49.5057 161.0731 234° Southwest 499 574 40,000  Level FlightAware Transoceanic
12:55AM 49.4833 161.0333 234° Southwest 493 567 40,000  Level Anchorage Center
12:56AM 49.4221 160.8956 234° Southwest 499 574 40,000  Level FlightAware Transoceanic
12:57AM 49.3382 160.7186 234° Southwest 499 574 40,000  Level FlightAware Transoceanic
12:57AM 49.3167 160.6667 234° Southwest 493 567 40,000  Level Anchorage Center
12:58AM 49.2541 160.5422 234° Southwest 499 574 40,000  Level FlightAware Transoceanic
12:59AM 49.1697 160.3664 234° Southwest 499 574 40,000  Level FlightAware Transoceanic
01:00AM 49.0850 160.1913 233° Southwest 499 574 40,000  Level FlightAware Transoceanic
01:01AM 49.0000 160.0167 233° Southwest 493 567 40,000  Level FlightAware Transoceanic
01:02AM 48.9216 159.8568 233° Southwest 493 567 40,000  Level FlightAware Transoceanic
01:03AM 48.8430 159.6975 233° Southwest 493 567 40,000  Level FlightAware Transoceanic
01:04AM 48.7643 159.5387 233° Southwest 493 567 40,000  Level FlightAware Transoceanic
01:05AM 48.6852 159.3803 233° Southwest 493 567 40,000  Level FlightAware Transoceanic
01:06AM 48.6060 159.2225 233° Southwest 493 567 40,000  Level FlightAware Transoceanic
01:07AM 48.5265 159.0652 233° Southwest 493 567 40,000  Level FlightAware Transoceanic
01:08AM 48.4469 158.9083 232° Southwest 493 567 40,000  Level FlightAware Transoceanic
01:09AM 48.3670 158.7520 232° Southwest 493 567 40,000  Level FlightAware Transoceanic
01:10AM 48.2869 158.5961 232° Southwest 493 567 40,000  Level FlightAware Transoceanic
01:11AM 48.2066 158.4407 232° Southwest 493 567 40,000  Level FlightAware Transoceanic
01:12AM 48.1261 158.2858 232° Southwest 493 567 40,000  Level FlightAware Transoceanic
01:13AM 48.0454 158.1314 232° Southwest 493 567 40,000  Level FlightAware Transoceanic
01:14AM 47.9645 157.9775 232° Southwest 493 567 40,000  Level FlightAware Transoceanic
01:15AM 47.8833 157.8241 232° Southwest 493 567 40,000  Level FlightAware Transoceanic
01:16AM 47.8020 157.6711 232° Southwest 493 567 40,000  Level FlightAware Transoceanic
01:17AM 47.7205 157.5186 231° Southwest 493 567 40,000  Level FlightAware Transoceanic
01:18AM 47.6387 157.3667 231° Southwest 493 567 40,000  Level FlightAware Transoceanic
01:19AM 47.5568 157.2151 231° Southwest 493 567 40,000  Level FlightAware Transoceanic
01:20AM 47.4747 157.0641 231° Southwest 493 567 40,000  Level FlightAware Transoceanic
01:21AM 47.3923 156.9135 231° Southwest 493 567 40,000  Level FlightAware Transoceanic
01:22AM 47.3098 156.7634 231° Southwest 493 567 40,000  Level FlightAware Transoceanic
01:23AM 47.2271 156.6137 231° Southwest 493 567 40,000  Level FlightAware Transoceanic
01:24AM 47.1442 156.4646 231° Southwest 493 567 40,000  Level FlightAware Transoceanic
01:25AM 47.0611 156.3159 231° Southwest 493 567 40,000  Level FlightAware Transoceanic
01:26AM 46.9777 156.1676 230° Southwest 493 567 40,000  Level FlightAware Transoceanic
01:27AM 46.8942 156.0198 230° Southwest 493 567 40,000  Level FlightAware Transoceanic
01:28AM 46.8106 155.8725 230° Southwest 493 567 40,000  Level FlightAware Transoceanic
01:29AM 46.7267 155.7256 230° Southwest 493 567 40,000  Level FlightAware Transoceanic
01:30AM 46.6426 155.5792 230° Southwest 493 567 40,000  Level FlightAware Transoceanic
01:31AM 46.5584 155.4333 230° Southwest 493 567 40,000  Level FlightAware Transoceanic
01:32AM 46.4740 155.2878 230° Southwest 493 567 40,000  Level FlightAware Transoceanic
01:33AM 46.3894 155.1427 230° Southwest 493 567 40,000  Level FlightAware Transoceanic
01:34AM 46.3046 154.9981 230° Southwest 493 567 40,000  Level FlightAware Transoceanic
01:35AM 46.2196 154.8540 229° Southwest 493 567 40,000  Level FlightAware Transoceanic
01:36AM 46.1344 154.7103 229° Southwest 493 567 40,000  Level FlightAware Transoceanic
01:37AM 46.0491 154.5670 229° Southwest 493 567 40,000  Level FlightAware Transoceanic
01:38AM 45.9636 154.4242 229° Southwest 493 567 40,000  Level FlightAware Transoceanic
01:39AM 45.8779 154.2818 229° Southwest 493 567 40,000  Level FlightAware Transoceanic
01:40AM 45.7920 154.1399 229° Southwest 493 567 40,000  Level FlightAware Transoceanic
01:41AM 45.7060 153.9984 229° Southwest 493 567 40,000  Level FlightAware Transoceanic
01:42AM 45.6197 153.8573 229° Southwest 493 567 40,000  Level FlightAware Transoceanic
01:43AM 45.5244 153.7272 224° Southwest  Level FlightAware Approximate
01:44AM 45.4289 153.5975 224° Southwest  Level FlightAware Approximate
01:45AM 45.4355 153.5856 229° Southwest  Level FlightAware Approximate
01:46AM 45.3481 153.4451 229° Southwest  Level FlightAware Approximate
01:47AM 45.2605 153.3049 228° Southwest  Level FlightAware Approximate
01:48AM 45.1727 153.1653 228° Southwest  Level FlightAware Approximate
01:49AM 45.0847 153.0260 228° Southwest  Level FlightAware Approximate
01:50AM 44.9966 152.8872 228° Southwest  Level FlightAware Approximate
01:51AM 44.9083 152.7488 228° Southwest  Level FlightAware Approximate
01:52AM 44.8199 152.6109 228° Southwest  Level FlightAware Approximate
01:53AM 44.7313 152.4733 228° Southwest  Level FlightAware Approximate
01:54AM 44.6425 152.3362 228° Southwest  Level FlightAware Approximate
01:55AM 44.5535 152.1995 228° Southwest  Level FlightAware Approximate
01:56AM 44.4644 152.0633 227° Southwest  Level FlightAware Approximate
01:57AM 44.3750 151.9276 227° Southwest  Level FlightAware Approximate
01:58AM 44.2855 151.7923 227° Southwest  Level FlightAware Approximate
01:59AM 44.1958 151.6574 227° Southwest  Level FlightAware Approximate
02:00AM 44.1059 151.5230 227° Southwest  Level FlightAware Approximate
02:01AM 44.0158 151.3889 227° Southwest  Level FlightAware Approximate
02:02AM 43.9256 151.2553 227° Southwest  Level FlightAware Approximate
02:03AM 43.8348 151.1227 227° Southwest  Level FlightAware Approximate
02:04AM 43.7438 150.9905 226° Southwest  Level FlightAware Approximate
02:05AM 43.6527 150.8587 226° Southwest  Level FlightAware Approximate
02:06AM 43.5614 150.7273 226° Southwest  Level FlightAware Approximate
02:07AM 43.4700 150.5963 226° Southwest  Level FlightAware Approximate
02:08AM 43.3784 150.4657 226° Southwest  Level FlightAware Approximate
02:09AM 43.2867 150.3354 226° Southwest  Level FlightAware Approximate
02:10AM 43.1948 150.2056 226° Southwest  Level FlightAware Approximate
02:11AM 43.1028 150.0762 226° Southwest  Level FlightAware Approximate
02:12AM 43.0106 149.9471 226° Southwest  Level FlightAware Approximate
02:13AM 42.9183 149.8185 226° Southwest  Level FlightAware Approximate
02:13AM 42.8620 149.7380 226° Southwest 466 536 41,000  Level FlightAware
02:14AM 42.8259 149.6902 226° Southwest  Level FlightAware Approximate
02:14AM 42.8230 149.6840 225° Southwest 466 536 41,000  Level FlightAware
02:14AM 42.7570 149.5910 226° Southwest 465 535 41,000  Level FlightAware
02:15AM 42.7030 149.5180 225° Southwest 461 531 41,000  Level FlightAware
02:15AM 42.6590 149.4560 226° Southwest 461 531 41,000  Level FlightAware
02:16AM 42.6060 149.3840 225° Southwest 461 531 41,000  Level FlightAware
02:17AM 42.5580 149.3160 226° Southwest 461 531 41,000  Level FlightAware
02:17AM 42.4910 149.2260 225° Southwest 461 531 41,000  Level FlightAware
02:18AM 42.4260 149.1360 226° Southwest 461 531 41,000  Level FlightAware
02:19AM 42.3810 149.0720 226° Southwest 461 531 41,000  Level FlightAware
02:19AM 42.3160 148.9880 224° Southwest 462 532 41,000  Level FlightAware
02:20AM 42.2720 148.9280 225° Southwest 463 533 41,000  Level FlightAware
02:20AM 42.2160 148.8530 225° Southwest 462 532 41,000  Level FlightAware
02:21AM 42.1540 148.7690 225° Southwest 463 533 41,000  Level FlightAware
02:21AM 42.1100 148.7100 225° Southwest 463 533 41,000  Level FlightAware
02:22AM 42.0580 148.6410 225° Southwest 464 534 41,000  Level FlightAware
02:23AM 42.0070 148.5720 225° Southwest 465 535 41,000  Level FlightAware
02:23AM 41.9410 148.4840 225° Southwest 471 542 41,000  Level FlightAware
02:24AM 41.8950 148.4230 225° Southwest 471 542 41,000  Level FlightAware
02:24AM 41.8260 148.3310 225° Southwest 472 543 41,000  Level FlightAware
02:25AM 41.7690 148.2570 224° Southwest 473 544 41,000  Level FlightAware
02:26AM 41.7180 148.1890 225° Southwest 473 544 41,000  Level FlightAware
02:26AM 41.6530 148.1050 224° Southwest 473 544 41,000  Level FlightAware
02:27AM 41.5900 148.0240 224° Southwest 471 542 41,000  Level FlightAware
02:28AM 41.5270 147.9430 224° Southwest 472 543 41,000  Level FlightAware
02:28AM 41.4640 147.8630 224° Southwest 473 544 41,000  Level FlightAware
02:29AM 41.4120 147.7960 224° Southwest 473 544 41,000  Level FlightAware
02:30AM 41.3290 147.6900 224° Southwest 469 540 41,000  Level FlightAware
02:30AM 41.2850 147.6350 223° Southwest 468 539 41,000  Level FlightAware
02:31AM 41.2180 147.5500 224° Southwest 468 539 41,000  Level FlightAware
02:31AM 41.1640 147.4810 224° Southwest 468 539 41,000  Level FlightAware
02:32AM 41.1000 147.4000 224° Southwest 468 539 41,000  Level FlightAware
02:33AM 41.0260 147.3070 223° Southwest 468 539 41,000  Level FlightAware
02:34AM 40.9640 147.2300 223° Southwest 466 536 41,000  Level FlightAware
02:34AM 40.9020 147.1530 223° Southwest 466 536 41,000  Level FlightAware
02:35AM 40.8440 147.0810 223° Southwest 471 542 41,000  Level FlightAware
02:35AM 40.7880 147.0110 223° Southwest 470 541 41,000  Level FlightAware
02:36AM 40.7340 146.9440 223° Southwest 469 540 41,000  Level FlightAware
02:37AM 40.6770 146.8740 223° Southwest 468 539 41,000  Level FlightAware
02:37AM 40.6070 146.7870 223° Southwest 467 537 41,000  Level FlightAware
02:38AM 40.5600 146.7290 223° Southwest 466 536 41,000  Level FlightAware
02:38AM 40.5050 146.6610 223° Southwest 466 536 41,000  Level FlightAware
02:39AM 40.4510 146.5950 223° Southwest 466 536 41,000  Level FlightAware
02:40AM 40.3820 146.5110 223° Southwest 465 535 41,000  Level FlightAware
02:40AM 40.3240 146.4400 223° Southwest 467 537 41,000  Level FlightAware
02:41AM 40.2750 146.3800 223° Southwest 467 537 41,000  Level FlightAware
02:41AM 40.2120 146.3040 223° Southwest 467 537 41,000  Level FlightAware
02:42AM 40.1510 146.2300 223° Southwest 461 531 41,000  Level FlightAware
02:43AM 40.0940 146.1620 222° Southwest 462 532 41,000  Level FlightAware
02:43AM 40.0390 146.0950 223° Southwest 461 531 41,000  Level FlightAware
02:44AM 39.9750 146.0190 222° Southwest 462 532 41,000  Level FlightAware
02:44AM 39.9270 145.9610 223° Southwest 461 531 41,000  Level FlightAware
02:45AM 39.8700 145.8920 223° Southwest 462 532 41,000  Level FlightAware
02:46AM 39.7890 145.7970 222° Southwest 469 540 41,000  Level FlightAware
02:47AM 39.7240 145.7180 223° Southwest 469 540 41,000  Level FlightAware
02:47AM 39.6750 145.6590 223° Southwest 469 540 41,000  Level FlightAware
02:48AM 39.6270 145.6010 223° Southwest 469 540 41,000  Level FlightAware
02:48AM 39.5780 145.5420 223° Southwest 469 540 41,000  Level FlightAware
02:49AM 39.5290 145.4830 223° Southwest 469 540 41,000  Level FlightAware
02:50AM 39.4800 145.4230 223° Southwest 469 540 41,000  Level FlightAware
02:50AM 39.4310 145.3640 223° Southwest 469 540 41,000  Level FlightAware
02:51AM 39.3820 145.3060 222° Southwest 469 540 41,000  Level FlightAware
02:51AM 39.3340 145.2470 224° Southwest 469 540 41,000  Level FlightAware
02:52AM 39.1950 145.0990 220° Southwest 41,000  Level FlightAware
02:53AM 39.1370 145.0320 222° Southwest 465 535 41,000  Level FlightAware
02:53AM 39.0840 144.9700 222° Southwest 464 534 41,000  Level FlightAware
02:54AM 39.0340 144.9120 222° Southwest 464 534 41,000  Level FlightAware
02:55AM 38.9550 144.8210 222° Southwest 465 535 41,000  Level FlightAware
02:55AM 38.9050 144.7630 222° Southwest 465 535 41,000  Level FlightAware
02:56AM 38.8440 144.6930 222° Southwest 466 536 41,000  Level FlightAware
02:56AM 38.7890 144.6310 221° Southwest 467 537 41,000  Level FlightAware
02:57AM 38.7340 144.5670 222° Southwest 468 539 41,000  Level FlightAware
02:58AM 38.6770 144.5020 222° Southwest 468 539 41,000  Level FlightAware
02:58AM 38.6080 144.4250 221° Southwest 468 539 41,000  Level FlightAware
02:59AM 38.5360 144.3430 222° Southwest 468 539 41,000  Level FlightAware
03:00AM 38.4790 144.2790 221° Southwest 468 539 41,000  Level FlightAware
03:00AM 38.4290 144.2210 222° Southwest 468 539 41,000  Level FlightAware
03:01AM 38.3780 144.1620 222° Southwest 468 539 41,000  Level FlightAware
03:01AM 38.3110 144.0890 221° Southwest 470 541 41,000  Level FlightAware
03:02AM 38.2510 144.0220 221° Southwest 471 542 41,000  Level FlightAware
03:02AM 38.1870 143.9500 221° Southwest 472 543 41,000  Level FlightAware
03:03AM 38.1380 143.8950 221° Southwest 473 544 41,000 -120 Level FlightAware
03:04AM 38.0850 143.8350 222° Southwest 476 548 40,900 -600 Descending FlightAware
03:04AM 38.0280 143.7700 222° Southwest 480 552 40,300 -1,200 Descending FlightAware
03:05AM 37.9650 143.7000 221° Southwest 478 550 39,500 -1,200 Descending FlightAware
03:05AM 37.9070 143.6350 221° Southwest 475 547 38,900 -1,080 Descending FlightAware
03:06AM 37.8520 143.5740 221° Southwest 477 549 38,300 -1,080 Descending FlightAware
03:06AM 37.7930 143.5090 221° Southwest 479 551 37,700 -1,140 Descending FlightAware
03:07AM 37.7340 143.4430 222° Southwest 480 552 37,000 -1,140 Descending FlightAware
03:08AM 37.6730 143.3770 221° Southwest 483 556 36,400 -1,020 Descending FlightAware
03:08AM 37.6100 143.3210 215° Southwest 485 558 35,800 -1,080 Descending FlightAware
03:09AM 37.5420 143.2680 212° Southwest 487 560 35,200 -1,020 Descending FlightAware
03:09AM 37.4660 143.2080 212° Southwest 487 560 34,600 -960 Descending FlightAware
03:10AM 37.4090 143.1630 212° Southwest 489 563 34,100 -600 Descending FlightAware
03:11AM 37.3410 143.1110 211° Southwest 488 562 34,000 -120 Descending FlightAware
03:11AM 37.2670 143.0530 212° Southwest 486 559 34,000  Level FlightAware
03:12AM 37.1900 142.9930 212° Southwest 488 562 34,000  Level FlightAware
03:12AM 37.1300 142.9460 212° Southwest 489 563 34,000  Level FlightAware
03:13AM 37.0480 142.8820 212° Southwest 493 567 34,000  Level FlightAware
03:14AM 36.9830 142.8320 212° Southwest 493 567 34,000  Level FlightAware
03:14AM 36.9170 142.7810 212° Southwest 493 567 34,000  Level FlightAware
03:15AM 36.8580 142.7340 213° Southwest 493 567 34,000  Level FlightAware
03:16AM 36.7990 142.6880 212° Southwest 493 567 34,000  Level FlightAware
03:16AM 36.6750 142.5950 211° Southwest 496 571 34,000  Level FlightAware
03:17AM 36.6150 142.5480 212° Southwest 496 571 34,000  Level FlightAware
03:18AM 36.5240 142.4800 211° Southwest 496 571 34,000 -960 Level FlightAware
03:18AM 36.4550 142.4280 211° Southwest 486 559 32,900 -2,100 Descending FlightAware
03:19AM 36.3560 142.3530 211° Southwest 474 545 31,100 -2,100 Descending FlightAware
03:20AM 36.2810 142.2960 211° Southwest 464 534 29,800 -2,040 Descending FlightAware
03:20AM 36.2190 142.2490 211° Southwest 474 545 28,600 -1,980 Descending FlightAware
03:21AM 36.1520 142.1980 212° Southwest 432 497 27,400 -2,460 Descending FlightAware
03:22AM 36.0930 142.1490 214° Southwest 429 494 25,500 -2,400 Descending FlightAware
03:22AM 36.0330 142.0780 224° Southwest 420 483 24,200 -2,040 Descending FlightAware
03:23AM 35.9900 142.0220 227° Southwest 417 480 23,200 -2,040 Descending FlightAware
03:24AM 35.9220 141.9370 225° Southwest 412 474 21,400 -1,980 Descending FlightAware
03:24AM 35.8710 141.8720 226° Southwest 409 471 20,100 -2,040 Descending FlightAware
03:25AM 35.8320 141.8120 231° Southwest 384 442 18,900 -2,520 Descending FlightAware
03:25AM 35.8230 141.7630 257° West 384 442 17,800 -2,460 Descending FlightAware
03:26AM 35.8250 141.7040 272° West 379 436 16,700 -2,460 Descending FlightAware
03:26AM 35.8280 141.6100 272° West 374 430 15,000 -2,280 Descending FlightAware
03:27AM 35.8310 141.5130 272° West 363 418 13,600 -1,740 Descending FlightAware
03:28AM 35.8330 141.4470 272° West 357 411 12,700 -1,380 Descending FlightAware
03:28AM 35.8350 141.3790 272° West 336 387 12,100 -720 Descending FlightAware
03:30AM 35.8400 141.2190 272° West 314 361 11,300 -660 Descending FlightAware
03:30AM 35.8420 141.1470 272° West 303 349 10,700 -960 Descending FlightAware
03:31AM 35.8430 141.0970 271° West 293 337 10,200 -1,200 Descending FlightAware
03:31AM 35.8440 141.0600 272° West 292 336 9,700 -1,200 Descending FlightAware
03:32AM 35.8450 141.0210 272° West 289 333 9,300 -900 Descending FlightAware
03:32AM 35.8480 140.9990 280° West 287 330 9,100 -900 Descending FlightAware
03:32AM 35.8540 140.9660 283° West 284 327 8,700 -1,260 Descending FlightAware
03:33AM 35.8600 140.9370 284° West 282 325 8,300 -1,380 Descending FlightAware
03:33AM 35.8660 140.9060 283° West 281 323 7,900 -1,260 Descending FlightAware
03:33AM 35.8710 140.8830 285° West 280 322 7,600 -1,200 Descending FlightAware
03:34AM 35.8770 140.8560 285° West 275 316 7,300 -1,200 Descending FlightAware
03:34AM 35.8850 140.8170 284° West 272 313 6,800 -1,380 Descending FlightAware
03:34AM 35.8910 140.7830 282° West 271 312 6,300 -900 Descending FlightAware
03:35AM 35.8990 140.7460 285° West 270 311 6,100 -180 Descending FlightAware
03:35AM 35.9050 140.7160 284° West 271 312 6,200 120 Climbing FlightAware
03:35AM 35.9110 140.6870 284° West 270 311 6,200  Level FlightAware
03:36AM 35.9190 140.6450 283° West 267 307 6,200  Level FlightAware
03:36AM 35.9240 140.6210 284° West 263 303 6,200  Level FlightAware
03:36AM 35.9290 140.5930 282° West 257 296 6,200  Level FlightAware
03:37AM 35.9330 140.5740 285° West 256 295 6,200  Level FlightAware
03:37AM 35.9400 140.5410 285° West 259 298 6,200  Level FlightAware
03:37AM 35.9450 140.5120 282° West 256 295 6,200  Level FlightAware
03:38AM 35.9510 140.4800 283° West 250 288 6,200 -300 Level FlightAware
03:38AM 35.9570 140.4520 285° West 246 283 6,000 -720 Descending FlightAware
03:38AM 35.9610 140.4310 283° West 244 281 5,800 -840 Descending FlightAware
03:39AM 35.9660 140.4040 283° West 241 277 5,500 -960 Descending FlightAware
03:39AM 35.9680 140.3880 279° West 237 273 5,300 -660 Descending FlightAware
03:39AM 35.9680 140.3560 270° West 229 264 5,100 -660 Descending FlightAware
03:40AM 35.9660 140.3300 265° West 219 252 4,800 -900 Descending FlightAware
03:40AM 35.9630 140.3050 262° West 212 244 4,500 -840 Descending FlightAware
03:40AM 35.9540 140.2750 250° West 204 235 4,200 -900 Descending FlightAware
03:40AM 35.9530 140.2710 253° West 202 232 4,100 -1,320 Descending FlightAware
03:41AM 35.9460 140.2640 219° Southwest 196 226 3,900 -1,380 Descending FlightAware
03:41AM 35.9390 140.2610 199° South 193 222 3,700 -1,080 Descending FlightAware
03:41AM 35.9250 140.2700 152° Southeast 196 226 3,400 -900 Descending FlightAware
03:41AM 35.9210 140.2790 119° Southeast 198 228 3,300 -1,080 Descending FlightAware
03:42AM 35.9120 140.2990 119° Southeast 191 220 2,900 -1,080 Descending FlightAware
03:42AM 35.9070 140.3030 147° Southeast 183 211 2,800 -420 Descending FlightAware
03:42AM 35.9000 140.3050 167° South 185 213 2,800 -480 Level FlightAware
03:42AM 35.8820 140.3080 172° South 192 221 2,600 -780 Descending FlightAware
03:42AM 35.8720 140.3090 175° South 192 221 2,400 -1,200 Descending FlightAware
03:43AM 35.8510 140.3160 165° South 194 223 1,900 -1,200 Descending FlightAware
03:43AM 35.8410 140.3210 158° South 194 223 1,700 -1,020 Descending FlightAware
03:43AM 35.8270 140.3310 150° Southeast 179 206 1,400 -840 Descending FlightAware
03:44AM 35.8160 140.3380 153° Southeast 164 189 1,200 -1,020 Descending FlightAware
03:44AM 35.8030 140.3480 148° Southeast 147 169 800 -900 Descending FlightAware
03:44AM 35.7910 140.3560 152° Southeast 139 160 600 -540 Descending FlightAware
03:44AM 35.7830 140.3620 149° Southeast 137 158 500 -300 Descending FlightAware
03:45AM 35.7670 140.3740 149° Southeast 135 155 400 -240 Descending FlightAware